Akogare — JPDL — position and weather

sailwx.info

Track history (hours):
 
Tides and Currents Weather Stations Pressure Air Temp Water Temp Dewpoint Dewpoint Depression Visibility Wind Speed Wind Dir Waves Ship Positions

Akogare (Japan)

Ship's website: http://www.akogare.or.jp/eng/top.html

Last reported at 2017-Jun-26 06:55 UTC. Time now 2017-Jun-26 11:57 UTC.
Position N 34°01' E 134°58'.

Length 52 m; draft 4.5 m.

Type: Sailing vessel. MMSI: 431005001.

Date/timePositionNaut miles runAvg speedWind from/ knotsBaromVisibWave heightAir tempDewpointWater temp
2017-Jun-26 06:55N 34°01' E 134°58'3 6.8
2017-Jun-26 06:30N 34°04' E 134°58'4 7.2
2017-Jun-26 06:00N 34°08' E 134°58'20 7.9
2017-Jun-26 03:30N 34°27' E 135°02'4 7.3
2017-Jun-26 03:00N 34°30' E 135°05'4 7.5
2017-Jun-26 02:30N 34°33' E 135°07'3 7.0
2017-Jun-26 02:00N 34°36' E 135°09'3 6.8
2017-Jun-26 01:30N 34°39' E 135°11'2 3.9
2017-Jun-26 01:00N 34°41' E 135°11'0 0.0
2017-Jun-26 00:28N 34°41' E 135°11'0 0.0
2017-Jun-25 23:50N 34°41' E 135°11'0 0.0
2017-Jun-25 23:26N 34°41' E 135°11'0 0.0
2017-Jun-25 22:32N 34°41' E 135°11'0 0.0
2017-Jun-25 22:14N 34°41' E 135°11'0 0.0
2017-Jun-25 21:56N 34°41' E 135°11'0 0.0
2017-Jun-25 21:20N 34°41' E 135°11'0 0.0
2017-Jun-25 20:56N 34°41' E 135°11'0 0.0
2017-Jun-25 20:20N 34°41' E 135°11'0 0.0
2017-Jun-25 19:56N 34°41' E 135°11'0 0.0
2017-Jun-25 19:26N 34°41' E 135°11'0 0.0
2017-Jun-25 18:56N 34°41' E 135°11'0 0.0
2017-Jun-25 18:26N 34°41' E 135°11'0 0.0
2017-Jun-25 17:56N 34°41' E 135°11'0 0.0
2017-Jun-25 17:26N 34°41' E 135°11'0 0.0
2017-Jun-25 16:56N 34°41' E 135°11'0 0.0
2017-Jun-25 16:14N 34°41' E 135°11'0 0.0
2017-Jun-25 15:50N 34°41' E 135°11'0 0.0
2017-Jun-25 15:26N 34°41' E 135°11'0 0.0
2017-Jun-25 14:56N 34°41' E 135°11'0 0.0
2017-Jun-25 13:56N 34°41' E 135°11'0 0.0
2017-Jun-25 13:26N 34°41' E 135°11'0 0.0
2017-Jun-25 12:50N 34°41' E 135°11'0 0.0
2017-Jun-25 12:14N 34°41' E 135°11'0 0.0
2017-Jun-25 11:56N 34°41' E 135°11'0 0.0
2017-Jun-25 11:20N 34°41' E 135°11'0 0.0
2017-Jun-25 10:50N 34°41' E 135°11'0 0.0
2017-Jun-25 10:26N 34°41' E 135°11'0 0.0
2017-Jun-25 09:50N 34°41' E 135°11'0 0.0
2017-Jun-25 09:26N 34°41' E 135°11'0 0.0
2017-Jun-25 08:44N 34°41' E 135°11'0 0.0
2017-Jun-25 08:20N 34°41' E 135°11'0 0.0
2017-Jun-25 07:56N 34°41' E 135°11'0 0.0
2017-Jun-25 07:26N 34°41' E 135°11'0 0.0
2017-Jun-25 06:56N 34°41' E 135°11'0 0.0
2017-Jun-25 06:26N 34°41' E 135°11'0 0.0
2017-Jun-25 05:50N 34°41' E 135°11'0 0.0
2017-Jun-25 05:26N 34°41' E 135°11'0 0.0
2017-Jun-25 04:56N 34°41' E 135°11'0 0.0
2017-Jun-25 04:26N 34°41' E 135°11'0 0.0
2017-Jun-25 03:56N 34°41' E 135°11'0 0.0
2017-Jun-25 03:20N 34°41' E 135°11'0 0.0
2017-Jun-25 02:56N 34°41' E 135°11'0 0.0
2017-Jun-25 02:26N 34°41' E 135°11'0 0.0
2017-Jun-25 01:56N 34°41' E 135°11'0 0.0
2017-Jun-25 01:26N 34°41' E 135°11'0 0.0
2017-Jun-25 00:56N 34°41' E 135°11'0 0.0
2017-Jun-25 00:26N 34°41' E 135°11'0 0.0
2017-Jun-24 23:56N 34°41' E 135°11'0 0.0
2017-Jun-24 23:20N 34°41' E 135°11'0 0.0
2017-Jun-24 22:50N 34°41' E 135°11'0 0.0
2017-Jun-24 22:26N 34°41' E 135°11'0 0.0
2017-Jun-24 21:50N 34°41' E 135°11'0 0.0
2017-Jun-24 21:26N 34°41' E 135°11'0 0.0
2017-Jun-24 20:50N 34°41' E 135°11'0 0.0
2017-Jun-24 20:26N 34°41' E 135°11'0 0.0
2017-Jun-24 19:56N 34°41' E 135°11'0 0.0
2017-Jun-24 19:14N 34°41' E 135°11'0 0.0
2017-Jun-24 18:56N 34°41' E 135°11'0 0.0
2017-Jun-24 18:20N 34°41' E 135°11'0 0.0
2017-Jun-24 17:56N 34°41' E 135°11'0 0.0
2017-Jun-24 17:26N 34°41' E 135°11'0 0.0
2017-Jun-24 16:56N 34°41' E 135°11'0 0.0
2017-Jun-24 16:26N 34°41' E 135°11'0 0.0
2017-Jun-24 15:56N 34°41' E 135°11'0 0.0
2017-Jun-24 15:26N 34°41' E 135°11'0 0.0
2017-Jun-24 14:56N 34°41' E 135°11'0 0.0
2017-Jun-24 13:56N 34°41' E 135°11'0 0.0
2017-Jun-24 13:26N 34°41' E 135°11'0 0.0
2017-Jun-24 12:56N 34°41' E 135°11'0 0.0
2017-Jun-24 12:26N 34°41' E 135°11'0 0.0
2017-Jun-24 11:56N 34°41' E 135°11'0 0.0
2017-Jun-24 11:26N 34°41' E 135°11'0 0.0
2017-Jun-24 10:56N 34°41' E 135°11'0 0.0
2017-Jun-24 10:20N 34°41' E 135°11'0 0.0
2017-Jun-24 09:56N 34°41' E 135°11'0 0.0
2017-Jun-24 09:20N 34°41' E 135°11'0 0.0
2017-Jun-24 08:50N 34°41' E 135°11'0 0.0
2017-Jun-24 08:02N 34°41' E 135°11'0 0.0
2017-Jun-24 07:56N 34°41' E 135°11'0 0.0
2017-Jun-24 07:20N 34°41' E 135°11'0 0.0
2017-Jun-24 06:50N 34°41' E 135°11'0 0.0
2017-Jun-24 06:26N 34°41' E 135°11'0 0.0
2017-Jun-24 05:56N 34°41' E 135°11'0 0.0
2017-Jun-24 05:26N 34°41' E 135°11'0 0.0
2017-Jun-24 04:56N 34°41' E 135°11'0 0.0
2017-Jun-24 04:26N 34°41' E 135°11'0 0.0
2017-Jun-24 03:56N 34°41' E 135°11'0 0.0
2017-Jun-24 03:26N 34°41' E 135°11'0 0.0
2017-Jun-24 02:50N 34°41' E 135°11'0 0.0
2017-Jun-24 02:26N 34°41' E 135°11'0 0.0
2017-Jun-24 01:56N 34°41' E 135°11'0 0.0
2017-Jun-24 01:20N 34°41' E 135°11'0 0.0
2017-Jun-24 00:50N 34°41' E 135°11'0 0.0
2017-Jun-24 00:26N 34°41' E 135°11'0 0.0
2017-Jun-23 23:56N 34°41' E 135°11'0 0.0
2017-Jun-23 23:26N 34°41' E 135°11'0 0.0
2017-Jun-23 22:50N 34°41' E 135°11'0 0.0
2017-Jun-23 22:26N 34°41' E 135°11'0 0.0
2017-Jun-23 21:50N 34°41' E 135°11'0 0.0
2017-Jun-23 21:26N 34°41' E 135°11'0 0.0
2017-Jun-23 20:56N 34°41' E 135°11'0 0.0
2017-Jun-23 20:26N 34°41' E 135°11'0 0.0
2017-Jun-23 19:56N 34°41' E 135°11'0 0.0
2017-Jun-23 19:26N 34°41' E 135°11'0 0.0
2017-Jun-23 18:44N 34°41' E 135°11'0 0.0
2017-Jun-23 18:26N 34°41' E 135°11'0 0.0
2017-Jun-23 17:56N 34°41' E 135°11'0 0.0
2017-Jun-23 17:26N 34°41' E 135°11'0 0.0
2017-Jun-23 16:56N 34°41' E 135°11'0 0.0
2017-Jun-23 16:20N 34°41' E 135°11'0 0.0
2017-Jun-23 15:56N 34°41' E 135°11'0 0.0
2017-Jun-23 15:26N 34°41' E 135°11'0 0.0
2017-Jun-23 14:50N 34°41' E 135°11'0 0.0
2017-Jun-23 13:56N 34°41' E 135°11'0 0.0
2017-Jun-23 12:56N 34°41' E 135°11'0 0.0
2017-Jun-23 12:26N 34°41' E 135°11'0 0.0
2017-Jun-23 11:56N 34°41' E 135°11'0 0.0
2017-Jun-23 11:26N 34°41' E 135°11'0 0.0
2017-Jun-23 10:56N 34°41' E 135°11'0 0.0
2017-Jun-23 10:20N 34°41' E 135°11'0 0.0
2017-Jun-23 09:56N 34°41' E 135°11'0 0.0
2017-Jun-23 09:26N 34°41' E 135°11'0 0.0
2017-Jun-23 08:50N 34°41' E 135°11'0 0.0
2017-Jun-23 08:26N 34°41' E 135°11'0 0.0
2017-Jun-23 07:56N 34°41' E 135°11'0 0.0
2017-Jun-23 07:26N 34°41' E 135°11'0 0.0
2017-Jun-23 06:56N 34°41' E 135°11'0 0.0
2017-Jun-23 06:26N 34°41' E 135°11'0 0.0
2017-Jun-23 05:56N 34°41' E 135°11'0 0.0
2017-Jun-23 05:26N 34°41' E 135°11'0 0.0
2017-Jun-23 04:50N 34°41' E 135°11'0 0.0
2017-Jun-23 04:20N 34°41' E 135°11'0 0.0
2017-Jun-23 03:50N 34°41' E 135°11'0 0.0
2017-Jun-23 03:26N 34°41' E 135°11'0 0.0
2017-Jun-23 02:56N 34°41' E 135°11'0 0.0
2017-Jun-23 02:08N 34°41' E 135°11'0 0.0
2017-Jun-23 01:56N 34°41' E 135°11'0 0.0
2017-Jun-23 01:26N 34°41' E 135°11'0 0.0
2017-Jun-23 00:56N 34°41' E 135°11'0 0.0
2017-Jun-23 00:14N 34°41' E 135°11'0 0.0
2017-Jun-22 23:56N 34°41' E 135°11'0 0.0
2017-Jun-22 23:26N 34°41' E 135°11'0 0.0
2017-Jun-22 22:50N 34°41' E 135°11'0 0.0
2017-Jun-22 22:26N 34°41' E 135°11'0 0.0
2017-Jun-22 21:56N 34°41' E 135°11'0 0.0
2017-Jun-22 21:26N 34°41' E 135°11'0 0.0
2017-Jun-22 20:50N 34°41' E 135°11'0 0.0
2017-Jun-22 20:26N 34°41' E 135°11'0 0.0
2017-Jun-22 19:56N 34°41' E 135°11'0 0.0
2017-Jun-22 19:26N 34°41' E 135°11'0 0.0
2017-Jun-22 18:50N 34°41' E 135°11'0 0.0
2017-Jun-22 18:20N 34°41' E 135°11'0 0.0
2017-Jun-22 17:56N 34°41' E 135°11'0 0.0
2017-Jun-22 17:26N 34°41' E 135°11'0 0.0
2017-Jun-22 16:56N 34°41' E 135°11'0 0.0
2017-Jun-22 16:26N 34°41' E 135°11'0 0.0
2017-Jun-22 15:56N 34°41' E 135°11'0 0.0
2017-Jun-22 15:26N 34°41' E 135°11'0 0.0
2017-Jun-22 14:56N 34°41' E 135°11'0 0.0
2017-Jun-22 13:56N 34°41' E 135°11'0 0.0
2017-Jun-22 13:26N 34°41' E 135°11'0 0.0
2017-Jun-22 12:56N 34°41' E 135°11'0 0.0
2017-Jun-22 12:26N 34°41' E 135°11'0 0.0
2017-Jun-22 11:56N 34°41' E 135°11'0 0.0
2017-Jun-22 11:26N 34°41' E 135°11'0 0.0
2017-Jun-22 10:56N 34°41' E 135°11'0 0.0
2017-Jun-22 10:26N 34°41' E 135°11'0 0.0
2017-Jun-22 09:56N 34°41' E 135°11'0 0.0
2017-Jun-22 09:26N 34°41' E 135°11'0 0.0
2017-Jun-22 08:56N 34°41' E 135°11'0 0.0
2017-Jun-22 08:26N 34°41' E 135°11'0 0.0
2017-Jun-22 07:56N 34°41' E 135°11'0 0.0
2017-Jun-22 07:20N 34°41' E 135°11'0 0.0
2017-Jun-22 06:56N 34°41' E 135°11'0 0.0
2017-Jun-22 06:20N 34°41' E 135°11'0 0.0
2017-Jun-22 05:56N 34°41' E 135°11'0 0.0
2017-Jun-22 05:26N 34°41' E 135°11'0 0.0
2017-Jun-22 04:44N 34°41' E 135°11'0 0.0
2017-Jun-22 04:26N 34°41' E 135°11'0 0.0
2017-Jun-22 03:56N 34°41' E 135°11'0 0.0
2017-Jun-22 03:26N 34°41' E 135°11'0 0.0
2017-Jun-22 02:56N 34°41' E 135°11'0 0.0
2017-Jun-22 02:26N 34°41' E 135°11'0 0.0
2017-Jun-22 01:56N 34°41' E 135°11'0 0.0
2017-Jun-22 01:20N 34°41' E 135°11'0 0.0
2017-Jun-22 00:56N 34°41' E 135°11'0 0.0
2017-Jun-22 00:20N 34°41' E 135°11'0 0.0
2017-Jun-21 23:56N 34°41' E 135°11'0 0.0
2017-Jun-21 23:26N 34°41' E 135°11'0 0.0
2017-Jun-21 22:50N 34°41' E 135°11'0 0.0
2017-Jun-21 22:20N 34°41' E 135°11'0 0.0
2017-Jun-21 21:56N 34°41' E 135°11'0 0.0
2017-Jun-21 21:26N 34°41' E 135°11'0 0.0
2017-Jun-21 20:50N 34°41' E 135°11'0 0.0
2017-Jun-21 20:26N 34°41' E 135°11'0 0.0
2017-Jun-21 19:50N 34°41' E 135°11'0 0.0
2017-Jun-21 19:26N 34°41' E 135°11'0 0.0
2017-Jun-21 18:56N 34°41' E 135°11'0 0.0
2017-Jun-21 18:26N 34°41' E 135°11'0 0.0
2017-Jun-21 17:56N 34°41' E 135°11'0 0.0
2017-Jun-21 17:26N 34°41' E 135°11'0 0.0
2017-Jun-21 16:56N 34°41' E 135°11'0 0.0
2017-Jun-21 16:26N 34°41' E 135°11'0 0.0
2017-Jun-21 15:56N 34°41' E 135°11'0 0.0
2017-Jun-21 15:26N 34°41' E 135°11'0 0.0
2017-Jun-21 14:56N 34°41' E 135°11'0 0.0
2017-Jun-21 13:56N 34°41' E 135°11'0 0.0
2017-Jun-21 13:26N 34°41' E 135°11'0 0.0
2017-Jun-21 12:56N 34°41' E 135°11'0 0.0
2017-Jun-21 12:26N 34°41' E 135°11'0 0.0
2017-Jun-21 11:56N 34°41' E 135°11'0 0.0
2017-Jun-21 11:14N 34°41' E 135°11'0 0.0
2017-Jun-21 10:56N 34°41' E 135°11'0 0.0
2017-Jun-21 10:26N 34°41' E 135°11'0 0.0
2017-Jun-21 09:50N 34°41' E 135°11'0 0.0
2017-Jun-21 09:20N 34°41' E 135°11'0 0.0
2017-Jun-21 08:56N 34°41' E 135°11'0 0.0
2017-Jun-21 08:26N 34°41' E 135°11'0 0.0
2017-Jun-21 07:56N 34°41' E 135°11'0 0.0
2017-Jun-21 07:26N 34°41' E 135°11'0 0.0
2017-Jun-21 06:56N 34°41' E 135°11'0 0.0
2017-Jun-21 06:20N 34°41' E 135°11'0 0.0
2017-Jun-21 05:50N 34°41' E 135°11'0 0.0
2017-Jun-21 05:26N 34°41' E 135°11'0 0.0
2017-Jun-21 04:56N 34°41' E 135°11'0 0.0
2017-Jun-21 04:26N 34°41' E 135°11'0 0.0
2017-Jun-21 03:56N 34°41' E 135°11'0 0.0
2017-Jun-21 03:26N 34°41' E 135°11'0 0.0
2017-Jun-21 02:56N 34°41' E 135°11'0 0.0
2017-Jun-21 02:26N 34°41' E 135°11'0 0.0
2017-Jun-21 01:56N 34°41' E 135°11'0 0.0
2017-Jun-21 01:02N 34°41' E 135°11'0 0.1
2017-Jun-21 00:56N 34°41' E 135°11'0 0.0
2017-Jun-21 00:26N 34°41' E 135°11'0 0.0
2017-Jun-20 23:56N 34°41' E 135°11'0 0.0
2017-Jun-20 23:26N 34°41' E 135°11'0 0.0
2017-Jun-20 22:56N 34°41' E 135°11'0 0.0
2017-Jun-20 22:20N 34°41' E 135°11'0 0.0
2017-Jun-20 21:56N 34°41' E 135°11'0 0.0
2017-Jun-20 21:26N 34°41' E 135°11'0 0.0
2017-Jun-20 20:50N 34°41' E 135°11'0 0.0
2017-Jun-20 20:26N 34°41' E 135°11'0 0.0
2017-Jun-20 19:56N 34°41' E 135°11'0 0.0
2017-Jun-20 19:26N 34°41' E 135°11'0 0.0
2017-Jun-20 18:50N 34°41' E 135°11'0 0.0
2017-Jun-20 18:26N 34°41' E 135°11'0 0.0
2017-Jun-20 17:56N 34°41' E 135°11'0 0.0
2017-Jun-20 17:26N 34°41' E 135°11'0 0.0
2017-Jun-20 16:56N 34°41' E 135°11'0 0.0
2017-Jun-20 16:26N 34°41' E 135°11'0 0.0
2017-Jun-20 15:56N 34°41' E 135°11'0 0.0
2017-Jun-20 15:26N 34°41' E 135°11'0 0.0
2017-Jun-20 14:56N 34°41' E 135°11'0 0.0
2017-Jun-20 13:56N 34°41' E 135°11'0 0.0
2017-Jun-20 13:26N 34°41' E 135°11'0 0.0
2017-Jun-20 12:56N 34°41' E 135°11'0 0.0
2017-Jun-20 12:26N 34°41' E 135°11'0 0.0
2017-Jun-20 11:56N 34°41' E 135°11'0 0.0
2017-Jun-20 11:26N 34°41' E 135°11'0 0.0
2017-Jun-20 10:50N 34°41' E 135°11'0 0.0
2017-Jun-20 10:26N 34°41' E 135°11'0 0.0
2017-Jun-20 09:56N 34°41' E 135°11'0 0.0
2017-Jun-20 09:26N 34°41' E 135°11'0 0.0
2017-Jun-20 08:50N 34°41' E 135°11'0 0.0
2017-Jun-20 08:26N 34°41' E 135°11'0 0.0
2017-Jun-20 07:56N 34°41' E 135°11'0 0.0
2017-Jun-20 07:26N 34°41' E 135°11'0 0.0
2017-Jun-20 06:56N 34°41' E 135°11'0 0.0
2017-Jun-20 06:26N 34°41' E 135°11'0 0.0
2017-Jun-20 05:56N 34°41' E 135°11'0 0.0
2017-Jun-20 05:20N 34°41' E 135°11'0 0.0
2017-Jun-20 04:56N 34°41' E 135°11'0 0.0
2017-Jun-20 04:26N 34°41' E 135°11'0 0.0
2017-Jun-20 03:56N 34°41' E 135°11'0 0.0
2017-Jun-20 03:20N 34°41' E 135°11'0 0.0
2017-Jun-20 02:56N 34°41' E 135°11'0 0.0
2017-Jun-20 02:26N 34°41' E 135°11'0 0.0
2017-Jun-20 01:56N 34°41' E 135°11'0 0.0
2017-Jun-20 01:26N 34°41' E 135°11'0 0.0
2017-Jun-20 00:50N 34°41' E 135°11'0 0.0
2017-Jun-20 00:20N 34°41' E 135°11'0 0.0
2017-Jun-19 23:56N 34°41' E 135°11'0 0.0
2017-Jun-19 23:26N 34°41' E 135°11'0 0.0
2017-Jun-19 22:56N 34°41' E 135°11'0 0.0
2017-Jun-19 22:26N 34°41' E 135°11'0 0.0
2017-Jun-19 21:56N 34°41' E 135°11'0 0.0
2017-Jun-19 21:26N 34°41' E 135°11'0 0.0
2017-Jun-19 20:50N 34°41' E 135°11'0 0.0
2017-Jun-19 20:26N 34°41' E 135°11'0 0.0
2017-Jun-19 19:56N 34°41' E 135°11'0 0.0
2017-Jun-19 19:26N 34°41' E 135°11'0 0.0
2017-Jun-19 18:50N 34°41' E 135°11'0 0.0
2017-Jun-19 18:26N 34°41' E 135°11'0 0.0
2017-Jun-19 17:56N 34°41' E 135°11'0 0.0
2017-Jun-19 17:26N 34°41' E 135°11'0 0.0
2017-Jun-19 16:56N 34°41' E 135°11'0 0.0
2017-Jun-19 16:26N 34°41' E 135°11'0 0.0
2017-Jun-19 15:56N 34°41' E 135°11'0 0.0
2017-Jun-19 15:20N 34°41' E 135°11'0 0.0
2017-Jun-19 14:44N 34°41' E 135°11'0 0.0
2017-Jun-19 13:56N 34°41' E 135°11'0 0.0
2017-Jun-19 13:26N 34°41' E 135°11'0 0.0
2017-Jun-19 12:50N 34°41' E 135°11'0 0.0
2017-Jun-19 12:26N 34°41' E 135°11'0 0.0
2017-Jun-19 11:56N 34°41' E 135°11'0 0.0
2017-Jun-19 11:20N 34°41' E 135°11'0 0.0
2017-Jun-19 10:56N 34°41' E 135°11'0 0.0
2017-Jun-19 10:20N 34°41' E 135°11'0 0.0
2017-Jun-19 09:56N 34°41' E 135°11'0 0.0
2017-Jun-19 09:26N 34°41' E 135°11'0 0.0
2017-Jun-19 08:56N 34°41' E 135°11'0 0.0
2017-Jun-19 08:26N 34°41' E 135°11'0 0.0
2017-Jun-19 07:56N 34°41' E 135°11'0 0.0
2017-Jun-19 07:20N 34°41' E 135°11'0 0.0
2017-Jun-19 06:50N 34°41' E 135°11'0 0.0
2017-Jun-19 06:14N 34°41' E 135°11'0 0.0
2017-Jun-19 05:56N 34°41' E 135°11'0 0.0
2017-Jun-19 05:26N 34°41' E 135°11'0 0.0
2017-Jun-19 04:44N 34°41' E 135°11'0 0.0
2017-Jun-19 04:20N 34°41' E 135°11'0 0.0
2017-Jun-19 03:56N 34°41' E 135°11'0 0.0
2017-Jun-19 03:26N 34°41' E 135°11'0 0.0
2017-Jun-19 02:56N 34°41' E 135°11'0 0.0
2017-Jun-19 02:26N 34°41' E 135°11'0 0.0
2017-Jun-19 01:56N 34°41' E 135°11'0 0.0
2017-Jun-19 01:26N 34°41' E 135°11'0 0.0
2017-Jun-19 00:50N 34°41' E 135°11'0 0.0
2017-Jun-19 00:20N 34°41' E 135°11'0 0.0
2017-Jun-18 23:44N 34°41' E 135°11'0 0.0
2017-Jun-18 23:26N 34°41' E 135°11'0 0.0
2017-Jun-18 22:44N 34°41' E 135°11'0 0.0
2017-Jun-18 22:26N 34°41' E 135°11'0 0.0
2017-Jun-18 21:56N 34°41' E 135°11'0 0.0
2017-Jun-18 21:26N 34°41' E 135°11'0 0.0
2017-Jun-18 20:56N 34°41' E 135°11'0 0.0
2017-Jun-18 20:26N 34°41' E 135°11'0 0.0
2017-Jun-18 19:56N 34°41' E 135°11'0 0.0
2017-Jun-18 19:20N 34°41' E 135°11'0 0.0
2017-Jun-18 18:56N 34°41' E 135°11'0 0.0
2017-Jun-18 18:26N 34°41' E 135°11'0 0.0
2017-Jun-18 17:56N 34°41' E 135°11'0 0.0
2017-Jun-18 17:26N 34°41' E 135°11'0 0.0
2017-Jun-18 16:56N 34°41' E 135°11'0 0.0
2017-Jun-18 16:26N 34°41' E 135°11'0 0.0
2017-Jun-18 15:56N 34°41' E 135°11'0 0.0
2017-Jun-18 15:26N 34°41' E 135°11'0 0.0
2017-Jun-18 14:50N 34°41' E 135°11'0 0.0
2017-Jun-18 13:56N 34°41' E 135°11'0 0.0
2017-Jun-18 13:26N 34°41' E 135°11'0 0.0
2017-Jun-18 12:56N 34°41' E 135°11'0 0.0
2017-Jun-18 12:26N 34°41' E 135°11'0 0.0
2017-Jun-18 11:50N 34°41' E 135°11'0 0.0
2017-Jun-18 11:14N 34°41' E 135°11'0 0.0
2017-Jun-18 10:56N 34°41' E 135°11'0 0.0
2017-Jun-18 10:26N 34°41' E 135°11'0 0.0
2017-Jun-18 09:50N 34°41' E 135°11'0 0.0
2017-Jun-18 09:26N 34°41' E 135°11'0 0.0
2017-Jun-18 08:50N 34°41' E 135°11'0 0.0
2017-Jun-18 08:26N 34°41' E 135°11'0 0.0
2017-Jun-18 07:56N 34°41' E 135°11'0 0.0
2017-Jun-18 07:20N 34°41' E 135°11'0 0.0
2017-Jun-18 06:56N 34°41' E 135°11'0 0.0
2017-Jun-18 06:20N 34°41' E 135°11'0 0.0
2017-Jun-18 05:56N 34°41' E 135°11'0 0.0
2017-Jun-18 05:26N 34°41' E 135°11'0 0.0
2017-Jun-18 04:56N 34°41' E 135°11'0 0.0
2017-Jun-18 04:26N 34°41' E 135°11'0 0.0
2017-Jun-18 03:56N 34°41' E 135°11'0 0.0
2017-Jun-18 03:26N 34°41' E 135°11'0 0.0
2017-Jun-18 02:56N 34°41' E 135°11'0 0.0
2017-Jun-18 02:26N 34°41' E 135°11'0 0.0
2017-Jun-18 01:56N 34°41' E 135°11'0 0.0
2017-Jun-18 01:26N 34°41' E 135°11'0 0.0
2017-Jun-18 00:56N 34°41' E 135°11'0 0.0
2017-Jun-18 00:26N 34°41' E 135°11'0 0.0
2017-Jun-17 23:56N 34°41' E 135°11'0 0.0
2017-Jun-17 23:26N 34°41' E 135°11'0 0.0
2017-Jun-17 22:56N 34°41' E 135°11'0 0.0
2017-Jun-17 22:26N 34°41' E 135°11'0 0.0
2017-Jun-17 21:44N 34°41' E 135°11'0 0.0
2017-Jun-17 21:26N 34°41' E 135°11'0 0.0
2017-Jun-17 20:56N 34°41' E 135°11'0 0.0
2017-Jun-17 20:26N 34°41' E 135°11'0 0.0
2017-Jun-17 19:56N 34°41' E 135°11'0 0.0
2017-Jun-17 19:26N 34°41' E 135°11'0 0.0
2017-Jun-17 18:56N 34°41' E 135°11'0 0.0
2017-Jun-17 18:26N 34°41' E 135°11'0 0.0
2017-Jun-17 17:56N 34°41' E 135°11'0 0.0
2017-Jun-17 17:26N 34°41' E 135°11'0 0.0
2017-Jun-17 16:56N 34°41' E 135°11'0 0.0
2017-Jun-17 16:26N 34°41' E 135°11'0 0.0
2017-Jun-17 15:56N 34°41' E 135°11'0 0.0
2017-Jun-17 15:26N 34°41' E 135°11'0 0.0
2017-Jun-17 14:56N 34°41' E 135°11'0 0.0
2017-Jun-17 14:26N 34°41' E 135°11'0 0.0
2017-Jun-17 13:14N 34°41' E 135°11'0 0.0
2017-Jun-17 12:56N 34°41' E 135°11'0 0.0
2017-Jun-17 12:14N 34°41' E 135°11'0 0.0
2017-Jun-17 11:50N 34°41' E 135°11'0 0.0
2017-Jun-17 11:26N 34°41' E 135°11'0 0.0
2017-Jun-17 10:56N 34°41' E 135°11'0 0.0
2017-Jun-17 10:26N 34°41' E 135°11'0 0.0
2017-Jun-17 09:56N 34°41' E 135°11'0 0.0
2017-Jun-17 09:26N 34°41' E 135°11'0 0.0
2017-Jun-17 08:56N 34°41' E 135°11'0 0.0
2017-Jun-17 08:26N 34°41' E 135°11'0 0.0
2017-Jun-17 07:56N 34°41' E 135°11'0 0.0
2017-Jun-17 07:26N 34°41' E 135°11'0 0.0
2017-Jun-17 06:50N 34°41' E 135°11'0 0.0
2017-Jun-17 06:26N 34°41' E 135°11'0 0.0
2017-Jun-17 05:56N 34°41' E 135°11'0 0.0
2017-Jun-17 05:14N 34°41' E 135°11'0 0.0
2017-Jun-17 04:14N 34°41' E 135°11'0 0.0
2017-Jun-17 03:56N 34°41' E 135°11'0 0.0
2017-Jun-17 03:26N 34°41' E 135°11'0 0.0
2017-Jun-17 02:56N 34°41' E 135°11'0 0.0
2017-Jun-17 02:26N 34°41' E 135°11'0 0.0
2017-Jun-17 01:56N 34°41' E 135°11'0 0.0
2017-Jun-17 01:26N 34°41' E 135°11'0 0.0
2017-Jun-17 00:56N 34°41' E 135°11'0 0.0
2017-Jun-17 00:26N 34°41' E 135°11'0 0.0
2017-Jun-16 23:38N 34°41' E 135°11'0 0.0
2017-Jun-16 23:20N 34°41' E 135°11'0 0.0
2017-Jun-16 22:56N 34°41' E 135°11'0 0.0
2017-Jun-16 22:20N 34°41' E 135°11'0 0.0
2017-Jun-16 21:50N 34°41' E 135°11'0 0.0
2017-Jun-16 21:20N 34°41' E 135°11'0 0.0
2017-Jun-16 20:56N 34°41' E 135°11'0 0.0
2017-Jun-16 20:26N 34°41' E 135°11'0 0.0
2017-Jun-16 19:50N 34°41' E 135°11'0 0.0
2017-Jun-16 19:26N 34°41' E 135°11'0 0.0
2017-Jun-16 18:56N 34°41' E 135°11'0 0.0
2017-Jun-16 18:26N 34°41' E 135°11'0 0.0
2017-Jun-16 17:56N 34°41' E 135°11'0 0.0
2017-Jun-16 17:26N 34°41' E 135°11'0 0.0
2017-Jun-16 16:56N 34°41' E 135°11'0 0.0
2017-Jun-16 16:26N 34°41' E 135°11'0 0.0
2017-Jun-16 15:56N 34°41' E 135°11'0 0.0
2017-Jun-16 15:26N 34°41' E 135°11'0 0.0
2017-Jun-16 14:56N 34°41' E 135°11'0 0.0
2017-Jun-16 14:26N 34°41' E 135°11'0 0.0
2017-Jun-16 13:20N 34°41' E 135°11'0 0.0
2017-Jun-16 12:56N 34°41' E 135°11'0 0.0
2017-Jun-16 12:26N 34°41' E 135°11'0 0.0
2017-Jun-16 11:56N 34°41' E 135°11'0 0.0
2017-Jun-16 11:26N 34°41' E 135°11'0 0.0
2017-Jun-16 10:56N 34°41' E 135°11'0 0.0
2017-Jun-16 10:26N 34°41' E 135°11'0 0.0
2017-Jun-16 09:56N 34°41' E 135°11'0 0.0
2017-Jun-16 09:26N 34°41' E 135°11'0 0.0
2017-Jun-16 08:56N 34°41' E 135°11'0 0.0
2017-Jun-16 08:26N 34°41' E 135°11'0 0.0
2017-Jun-16 07:50N 34°41' E 135°11'0 0.0
2017-Jun-16 07:26N 34°41' E 135°11'  
Track history (hours):
 
Tides and Currents Weather Stations Pressure Air Temp Water Temp Dewpoint Dewpoint Depression Visibility Wind Speed Wind Dir Waves Ship Positions

Akogare (Japan)

Ship's website: http://www.akogare.or.jp/eng/top.html

Last reported at 2017-Jun-26 06:55 UTC. Time now 2017-Jun-26 11:57 UTC.
Position N 34°01' E 134°58'.

Length 52 m; draft 4.5 m.

Type: Sailing vessel. MMSI: 431005001.

Date/timePositionNaut miles runAvg speedWind from/ knotsBaromVisibWave heightAir tempDewpointWater temp
2017-Jun-26 06:55N 34°01' E 134°58'3 6.8
2017-Jun-26 06:30N 34°04' E 134°58'4 7.2
2017-Jun-26 06:00N 34°08' E 134°58'20 7.9
2017-Jun-26 03:30N 34°27' E 135°02'4 7.3
2017-Jun-26 03:00N 34°30' E 135°05'4 7.5
2017-Jun-26 02:30N 34°33' E 135°07'3 7.0
2017-Jun-26 02:00N 34°36' E 135°09'3 6.8
2017-Jun-26 01:30N 34°39' E 135°11'2 3.9
2017-Jun-26 01:00N 34°41' E 135°11'0 0.0
2017-Jun-26 00:28N 34°41' E 135°11'0 0.0
2017-Jun-25 23:50N 34°41' E 135°11'0 0.0
2017-Jun-25 23:26N 34°41' E 135°11'0 0.0
2017-Jun-25 22:32N 34°41' E 135°11'0 0.0
2017-Jun-25 22:14N 34°41' E 135°11'0 0.0
2017-Jun-25 21:56N 34°41' E 135°11'0 0.0
2017-Jun-25 21:20N 34°41' E 135°11'0 0.0
2017-Jun-25 20:56N 34°41' E 135°11'0 0.0
2017-Jun-25 20:20N 34°41' E 135°11'0 0.0
2017-Jun-25 19:56N 34°41' E 135°11'0 0.0
2017-Jun-25 19:26N 34°41' E 135°11'0 0.0
2017-Jun-25 18:56N 34°41' E 135°11'0 0.0
2017-Jun-25 18:26N 34°41' E 135°11'0 0.0
2017-Jun-25 17:56N 34°41' E 135°11'0 0.0
2017-Jun-25 17:26N 34°41' E 135°11'0 0.0
2017-Jun-25 16:56N 34°41' E 135°11'0 0.0
2017-Jun-25 16:14N 34°41' E 135°11'0 0.0
2017-Jun-25 15:50N 34°41' E 135°11'0 0.0
2017-Jun-25 15:26N 34°41' E 135°11'0 0.0
2017-Jun-25 14:56N 34°41' E 135°11'0 0.0
2017-Jun-25 13:56N 34°41' E 135°11'0 0.0
2017-Jun-25 13:26N 34°41' E 135°11'0 0.0
2017-Jun-25 12:50N 34°41' E 135°11'0 0.0
2017-Jun-25 12:14N 34°41' E 135°11'0 0.0
2017-Jun-25 11:56N 34°41' E 135°11'0 0.0
2017-Jun-25 11:20N 34°41' E 135°11'0 0.0
2017-Jun-25 10:50N 34°41' E 135°11'0 0.0
2017-Jun-25 10:26N 34°41' E 135°11'0 0.0
2017-Jun-25 09:50N 34°41' E 135°11'0 0.0
2017-Jun-25 09:26N 34°41' E 135°11'0 0.0
2017-Jun-25 08:44N 34°41' E 135°11'0 0.0
2017-Jun-25 08:20N 34°41' E 135°11'0 0.0
2017-Jun-25 07:56N 34°41' E 135°11'0 0.0
2017-Jun-25 07:26N 34°41' E 135°11'0 0.0
2017-Jun-25 06:56N 34°41' E 135°11'0 0.0
2017-Jun-25 06:26N 34°41' E 135°11'0 0.0
2017-Jun-25 05:50N 34°41' E 135°11'0 0.0
2017-Jun-25 05:26N 34°41' E 135°11'0 0.0
2017-Jun-25 04:56N 34°41' E 135°11'0 0.0
2017-Jun-25 04:26N 34°41' E 135°11'0 0.0
2017-Jun-25 03:56N 34°41' E 135°11'0 0.0
2017-Jun-25 03:20N 34°41' E 135°11'0 0.0
2017-Jun-25 02:56N 34°41' E 135°11'0 0.0
2017-Jun-25 02:26N 34°41' E 135°11'0 0.0
2017-Jun-25 01:56N 34°41' E 135°11'0 0.0
2017-Jun-25 01:26N 34°41' E 135°11'0 0.0
2017-Jun-25 00:56N 34°41' E 135°11'0 0.0
2017-Jun-25 00:26N 34°41' E 135°11'0 0.0
2017-Jun-24 23:56N 34°41' E 135°11'0 0.0
2017-Jun-24 23:20N 34°41' E 135°11'0 0.0
2017-Jun-24 22:50N 34°41' E 135°11'0 0.0
2017-Jun-24 22:26N 34°41' E 135°11'0 0.0
2017-Jun-24 21:50N 34°41' E 135°11'0 0.0
2017-Jun-24 21:26N 34°41' E 135°11'0 0.0
2017-Jun-24 20:50N 34°41' E 135°11'0 0.0
2017-Jun-24 20:26N 34°41' E 135°11'0 0.0
2017-Jun-24 19:56N 34°41' E 135°11'0 0.0
2017-Jun-24 19:14N 34°41' E 135°11'0 0.0
2017-Jun-24 18:56N 34°41' E 135°11'0 0.0
2017-Jun-24 18:20N 34°41' E 135°11'0 0.0
2017-Jun-24 17:56N 34°41' E 135°11'0 0.0
2017-Jun-24 17:26N 34°41' E 135°11'0 0.0
2017-Jun-24 16:56N 34°41' E 135°11'0 0.0
2017-Jun-24 16:26N 34°41' E 135°11'0 0.0
2017-Jun-24 15:56N 34°41' E 135°11'0 0.0
2017-Jun-24 15:26N 34°41' E 135°11'0 0.0
2017-Jun-24 14:56N 34°41' E 135°11'0 0.0
2017-Jun-24 13:56N 34°41' E 135°11'0 0.0
2017-Jun-24 13:26N 34°41' E 135°11'0 0.0
2017-Jun-24 12:56N 34°41' E 135°11'0 0.0
2017-Jun-24 12:26N 34°41' E 135°11'0 0.0
2017-Jun-24 11:56N 34°41' E 135°11'0 0.0
2017-Jun-24 11:26N 34°41' E 135°11'0 0.0
2017-Jun-24 10:56N 34°41' E 135°11'0 0.0
2017-Jun-24 10:20N 34°41' E 135°11'0 0.0
2017-Jun-24 09:56N 34°41' E 135°11'0 0.0
2017-Jun-24 09:20N 34°41' E 135°11'0 0.0
2017-Jun-24 08:50N 34°41' E 135°11'0 0.0
2017-Jun-24 08:02N 34°41' E 135°11'0 0.0
2017-Jun-24 07:56N 34°41' E 135°11'0 0.0
2017-Jun-24 07:20N 34°41' E 135°11'0 0.0
2017-Jun-24 06:50N 34°41' E 135°11'0 0.0
2017-Jun-24 06:26N 34°41' E 135°11'0 0.0
2017-Jun-24 05:56N 34°41' E 135°11'0 0.0
2017-Jun-24 05:26N 34°41' E 135°11'0 0.0
2017-Jun-24 04:56N 34°41' E 135°11'0 0.0
2017-Jun-24 04:26N 34°41' E 135°11'0 0.0
2017-Jun-24 03:56N 34°41' E 135°11'0 0.0
2017-Jun-24 03:26N 34°41' E 135°11'0 0.0
2017-Jun-24 02:50N 34°41' E 135°11'0 0.0
2017-Jun-24 02:26N 34°41' E 135°11'0 0.0
2017-Jun-24 01:56N 34°41' E 135°11'0 0.0
2017-Jun-24 01:20N 34°41' E 135°11'0 0.0
2017-Jun-24 00:50N 34°41' E 135°11'0 0.0
2017-Jun-24 00:26N 34°41' E 135°11'0 0.0
2017-Jun-23 23:56N 34°41' E 135°11'0 0.0
2017-Jun-23 23:26N 34°41' E 135°11'0 0.0
2017-Jun-23 22:50N 34°41' E 135°11'0 0.0
2017-Jun-23 22:26N 34°41' E 135°11'0 0.0
2017-Jun-23 21:50N 34°41' E 135°11'0 0.0
2017-Jun-23 21:26N 34°41' E 135°11'0 0.0
2017-Jun-23 20:56N 34°41' E 135°11'0 0.0
2017-Jun-23 20:26N 34°41' E 135°11'0 0.0
2017-Jun-23 19:56N 34°41' E 135°11'0 0.0
2017-Jun-23 19:26N 34°41' E 135°11'0 0.0
2017-Jun-23 18:44N 34°41' E 135°11'0 0.0
2017-Jun-23 18:26N 34°41' E 135°11'0 0.0
2017-Jun-23 17:56N 34°41' E 135°11'0 0.0
2017-Jun-23 17:26N 34°41' E 135°11'0 0.0
2017-Jun-23 16:56N 34°41' E 135°11'0 0.0
2017-Jun-23 16:20N 34°41' E 135°11'0 0.0
2017-Jun-23 15:56N 34°41' E 135°11'0 0.0
2017-Jun-23 15:26N 34°41' E 135°11'0 0.0
2017-Jun-23 14:50N 34°41' E 135°11'0 0.0
2017-Jun-23 13:56N 34°41' E 135°11'0 0.0
2017-Jun-23 12:56N 34°41' E 135°11'0 0.0
2017-Jun-23 12:26N 34°41' E 135°11'0 0.0
2017-Jun-23 11:56N 34°41' E 135°11'0 0.0
2017-Jun-23 11:26N 34°41' E 135°11'0 0.0
2017-Jun-23 10:56N 34°41' E 135°11'0 0.0
2017-Jun-23 10:20N 34°41' E 135°11'0 0.0
2017-Jun-23 09:56N 34°41' E 135°11'0 0.0
2017-Jun-23 09:26N 34°41' E 135°11'0 0.0
2017-Jun-23 08:50N 34°41' E 135°11'0 0.0
2017-Jun-23 08:26N 34°41' E 135°11'0 0.0
2017-Jun-23 07:56N 34°41' E 135°11'0 0.0
2017-Jun-23 07:26N 34°41' E 135°11'0 0.0
2017-Jun-23 06:56N 34°41' E 135°11'0 0.0
2017-Jun-23 06:26N 34°41' E 135°11'0 0.0
2017-Jun-23 05:56N 34°41' E 135°11'0 0.0
2017-Jun-23 05:26N 34°41' E 135°11'0 0.0
2017-Jun-23 04:50N 34°41' E 135°11'0 0.0
2017-Jun-23 04:20N 34°41' E 135°11'0 0.0
2017-Jun-23 03:50N 34°41' E 135°11'0 0.0
2017-Jun-23 03:26N 34°41' E 135°11'0 0.0
2017-Jun-23 02:56N 34°41' E 135°11'0 0.0
2017-Jun-23 02:08N 34°41' E 135°11'0 0.0
2017-Jun-23 01:56N 34°41' E 135°11'0 0.0
2017-Jun-23 01:26N 34°41' E 135°11'0 0.0
2017-Jun-23 00:56N 34°41' E 135°11'0 0.0
2017-Jun-23 00:14N 34°41' E 135°11'0 0.0
2017-Jun-22 23:56N 34°41' E 135°11'0 0.0
2017-Jun-22 23:26N 34°41' E 135°11'0 0.0
2017-Jun-22 22:50N 34°41' E 135°11'0 0.0
2017-Jun-22 22:26N 34°41' E 135°11'0 0.0
2017-Jun-22 21:56N 34°41' E 135°11'0 0.0
2017-Jun-22 21:26N 34°41' E 135°11'0 0.0
2017-Jun-22 20:50N 34°41' E 135°11'0 0.0
2017-Jun-22 20:26N 34°41' E 135°11'0 0.0
2017-Jun-22 19:56N 34°41' E 135°11'0 0.0
2017-Jun-22 19:26N 34°41' E 135°11'0 0.0
2017-Jun-22 18:50N 34°41' E 135°11'0 0.0
2017-Jun-22 18:20N 34°41' E 135°11'0 0.0
2017-Jun-22 17:56N 34°41' E 135°11'0 0.0
2017-Jun-22 17:26N 34°41' E 135°11'0 0.0
2017-Jun-22 16:56N 34°41' E 135°11'0 0.0
2017-Jun-22 16:26N 34°41' E 135°11'0 0.0
2017-Jun-22 15:56N 34°41' E 135°11'0 0.0
2017-Jun-22 15:26N 34°41' E 135°11'0 0.0
2017-Jun-22 14:56N 34°41' E 135°11'0 0.0
2017-Jun-22 13:56N 34°41' E 135°11'0 0.0
2017-Jun-22 13:26N 34°41' E 135°11'0 0.0
2017-Jun-22 12:56N 34°41' E 135°11'0 0.0
2017-Jun-22 12:26N 34°41' E 135°11'0 0.0
2017-Jun-22 11:56N 34°41' E 135°11'0 0.0
2017-Jun-22 11:26N 34°41' E 135°11'0 0.0
2017-Jun-22 10:56N 34°41' E 135°11'0 0.0
2017-Jun-22 10:26N 34°41' E 135°11'0 0.0
2017-Jun-22 09:56N 34°41' E 135°11'0 0.0
2017-Jun-22 09:26N 34°41' E 135°11'0 0.0
2017-Jun-22 08:56N 34°41' E 135°11'0 0.0
2017-Jun-22 08:26N 34°41' E 135°11'0 0.0
2017-Jun-22 07:56N 34°41' E 135°11'0 0.0
2017-Jun-22 07:20N 34°41' E 135°11'0 0.0
2017-Jun-22 06:56N 34°41' E 135°11'0 0.0
2017-Jun-22 06:20N 34°41' E 135°11'0 0.0
2017-Jun-22 05:56N 34°41' E 135°11'0 0.0
2017-Jun-22 05:26N 34°41' E 135°11'0 0.0
2017-Jun-22 04:44N 34°41' E 135°11'0 0.0
2017-Jun-22 04:26N 34°41' E 135°11'0 0.0
2017-Jun-22 03:56N 34°41' E 135°11'0 0.0
2017-Jun-22 03:26N 34°41' E 135°11'0 0.0
2017-Jun-22 02:56N 34°41' E 135°11'0 0.0
2017-Jun-22 02:26N 34°41' E 135°11'0 0.0
2017-Jun-22 01:56N 34°41' E 135°11'0 0.0
2017-Jun-22 01:20N 34°41' E 135°11'0 0.0
2017-Jun-22 00:56N 34°41' E 135°11'0 0.0
2017-Jun-22 00:20N 34°41' E 135°11'0 0.0
2017-Jun-21 23:56N 34°41' E 135°11'0 0.0
2017-Jun-21 23:26N 34°41' E 135°11'0 0.0
2017-Jun-21 22:50N 34°41' E 135°11'0 0.0
2017-Jun-21 22:20N 34°41' E 135°11'0 0.0
2017-Jun-21 21:56N 34°41' E 135°11'0 0.0
2017-Jun-21 21:26N 34°41' E 135°11'0 0.0
2017-Jun-21 20:50N 34°41' E 135°11'0 0.0
2017-Jun-21 20:26N 34°41' E 135°11'0 0.0
2017-Jun-21 19:50N 34°41' E 135°11'0 0.0
2017-Jun-21 19:26N 34°41' E 135°11'0 0.0
2017-Jun-21 18:56N 34°41' E 135°11'0 0.0
2017-Jun-21 18:26N 34°41' E 135°11'0 0.0
2017-Jun-21 17:56N 34°41' E 135°11'0 0.0
2017-Jun-21 17:26N 34°41' E 135°11'0 0.0
2017-Jun-21 16:56N 34°41' E 135°11'0 0.0
2017-Jun-21 16:26N 34°41' E 135°11'0 0.0
2017-Jun-21 15:56N 34°41' E 135°11'0 0.0
2017-Jun-21 15:26N 34°41' E 135°11'0 0.0
2017-Jun-21 14:56N 34°41' E 135°11'0 0.0
2017-Jun-21 13:56N 34°41' E 135°11'0 0.0
2017-Jun-21 13:26N 34°41' E 135°11'0 0.0
2017-Jun-21 12:56N 34°41' E 135°11'0 0.0
2017-Jun-21 12:26N 34°41' E 135°11'0 0.0
2017-Jun-21 11:56N 34°41' E 135°11'0 0.0
2017-Jun-21 11:14N 34°41' E 135°11'0 0.0
2017-Jun-21 10:56N 34°41' E 135°11'0 0.0
2017-Jun-21 10:26N 34°41' E 135°11'0 0.0
2017-Jun-21 09:50N 34°41' E 135°11'0 0.0
2017-Jun-21 09:20N 34°41' E 135°11'0 0.0
2017-Jun-21 08:56N 34°41' E 135°11'0 0.0
2017-Jun-21 08:26N 34°41' E 135°11'0 0.0
2017-Jun-21 07:56N 34°41' E 135°11'0 0.0
2017-Jun-21 07:26N 34°41' E 135°11'0 0.0
2017-Jun-21 06:56N 34°41' E 135°11'0 0.0
2017-Jun-21 06:20N 34°41' E 135°11'0 0.0
2017-Jun-21 05:50N 34°41' E 135°11'0 0.0
2017-Jun-21 05:26N 34°41' E 135°11'0 0.0
2017-Jun-21 04:56N 34°41' E 135°11'0 0.0
2017-Jun-21 04:26N 34°41' E 135°11'0 0.0
2017-Jun-21 03:56N 34°41' E 135°11'0 0.0
2017-Jun-21 03:26N 34°41' E 135°11'0 0.0
2017-Jun-21 02:56N 34°41' E 135°11'0 0.0
2017-Jun-21 02:26N 34°41' E 135°11'0 0.0
2017-Jun-21 01:56N 34°41' E 135°11'0 0.0
2017-Jun-21 01:02N 34°41' E 135°11'0 0.1
2017-Jun-21 00:56N 34°41' E 135°11'0 0.0
2017-Jun-21 00:26N 34°41' E 135°11'0 0.0
2017-Jun-20 23:56N 34°41' E 135°11'0 0.0
2017-Jun-20 23:26N 34°41' E 135°11'0 0.0
2017-Jun-20 22:56N 34°41' E 135°11'0 0.0
2017-Jun-20 22:20N 34°41' E 135°11'0 0.0
2017-Jun-20 21:56N 34°41' E 135°11'0 0.0
2017-Jun-20 21:26N 34°41' E 135°11'0 0.0
2017-Jun-20 20:50N 34°41' E 135°11'0 0.0
2017-Jun-20 20:26N 34°41' E 135°11'0 0.0
2017-Jun-20 19:56N 34°41' E 135°11'0 0.0
2017-Jun-20 19:26N 34°41' E 135°11'0 0.0
2017-Jun-20 18:50N 34°41' E 135°11'0 0.0
2017-Jun-20 18:26N 34°41' E 135°11'0 0.0
2017-Jun-20 17:56N 34°41' E 135°11'0 0.0
2017-Jun-20 17:26N 34°41' E 135°11'0 0.0
2017-Jun-20 16:56N 34°41' E 135°11'0 0.0
2017-Jun-20 16:26N 34°41' E 135°11'0 0.0
2017-Jun-20 15:56N 34°41' E 135°11'0 0.0
2017-Jun-20 15:26N 34°41' E 135°11'0 0.0
2017-Jun-20 14:56N 34°41' E 135°11'0 0.0
2017-Jun-20 13:56N 34°41' E 135°11'0 0.0
2017-Jun-20 13:26N 34°41' E 135°11'0 0.0
2017-Jun-20 12:56N 34°41' E 135°11'0 0.0
2017-Jun-20 12:26N 34°41' E 135°11'0 0.0
2017-Jun-20 11:56N 34°41' E 135°11'0 0.0
2017-Jun-20 11:26N 34°41' E 135°11'0 0.0
2017-Jun-20 10:50N 34°41' E 135°11'0 0.0
2017-Jun-20 10:26N 34°41' E 135°11'0 0.0
2017-Jun-20 09:56N 34°41' E 135°11'0 0.0
2017-Jun-20 09:26N 34°41' E 135°11'0 0.0
2017-Jun-20 08:50N 34°41' E 135°11'0 0.0
2017-Jun-20 08:26N 34°41' E 135°11'0 0.0
2017-Jun-20 07:56N 34°41' E 135°11'0 0.0
2017-Jun-20 07:26N 34°41' E 135°11'0 0.0
2017-Jun-20 06:56N 34°41' E 135°11'0 0.0
2017-Jun-20 06:26N 34°41' E 135°11'0 0.0
2017-Jun-20 05:56N 34°41' E 135°11'0 0.0
2017-Jun-20 05:20N 34°41' E 135°11'0 0.0
2017-Jun-20 04:56N 34°41' E 135°11'0 0.0
2017-Jun-20 04:26N 34°41' E 135°11'0 0.0
2017-Jun-20 03:56N 34°41' E 135°11'0 0.0
2017-Jun-20 03:20N 34°41' E 135°11'0 0.0
2017-Jun-20 02:56N 34°41' E 135°11'0 0.0
2017-Jun-20 02:26N 34°41' E 135°11'0 0.0
2017-Jun-20 01:56N 34°41' E 135°11'0 0.0
2017-Jun-20 01:26N 34°41' E 135°11'0 0.0
2017-Jun-20 00:50N 34°41' E 135°11'0 0.0
2017-Jun-20 00:20N 34°41' E 135°11'0 0.0
2017-Jun-19 23:56N 34°41' E 135°11'0 0.0
2017-Jun-19 23:26N 34°41' E 135°11'0 0.0
2017-Jun-19 22:56N 34°41' E 135°11'0 0.0
2017-Jun-19 22:26N 34°41' E 135°11'0 0.0
2017-Jun-19 21:56N 34°41' E 135°11'0 0.0
2017-Jun-19 21:26N 34°41' E 135°11'0 0.0
2017-Jun-19 20:50N 34°41' E 135°11'0 0.0
2017-Jun-19 20:26N 34°41' E 135°11'0 0.0
2017-Jun-19 19:56N 34°41' E 135°11'0 0.0
2017-Jun-19 19:26N 34°41' E 135°11'0 0.0
2017-Jun-19 18:50N 34°41' E 135°11'0 0.0
2017-Jun-19 18:26N 34°41' E 135°11'0 0.0
2017-Jun-19 17:56N 34°41' E 135°11'0 0.0
2017-Jun-19 17:26N 34°41' E 135°11'0 0.0
2017-Jun-19 16:56N 34°41' E 135°11'0 0.0
2017-Jun-19 16:26N 34°41' E 135°11'0 0.0
2017-Jun-19 15:56N 34°41' E 135°11'0 0.0
2017-Jun-19 15:20N 34°41' E 135°11'0 0.0
2017-Jun-19 14:44N 34°41' E 135°11'0 0.0
2017-Jun-19 13:56N 34°41' E 135°11'0 0.0
2017-Jun-19 13:26N 34°41' E 135°11'0 0.0
2017-Jun-19 12:50N 34°41' E 135°11'0 0.0
2017-Jun-19 12:26N 34°41' E 135°11'0 0.0
2017-Jun-19 11:56N 34°41' E 135°11'0 0.0
2017-Jun-19 11:20N 34°41' E 135°11'0 0.0
2017-Jun-19 10:56N 34°41' E 135°11'0 0.0
2017-Jun-19 10:20N 34°41' E 135°11'0 0.0
2017-Jun-19 09:56N 34°41' E 135°11'0 0.0
2017-Jun-19 09:26N 34°41' E 135°11'0 0.0
2017-Jun-19 08:56N 34°41' E 135°11'0 0.0
2017-Jun-19 08:26N 34°41' E 135°11'0 0.0
2017-Jun-19 07:56N 34°41' E 135°11'0 0.0
2017-Jun-19 07:20N 34°41' E 135°11'0 0.0
2017-Jun-19 06:50N 34°41' E 135°11'0 0.0
2017-Jun-19 06:14N 34°41' E 135°11'0 0.0
2017-Jun-19 05:56N 34°41' E 135°11'0 0.0
2017-Jun-19 05:26N 34°41' E 135°11'0 0.0
2017-Jun-19 04:44N 34°41' E 135°11'0 0.0
2017-Jun-19 04:20N 34°41' E 135°11'0 0.0
2017-Jun-19 03:56N 34°41' E 135°11'0 0.0
2017-Jun-19 03:26N 34°41' E 135°11'0 0.0
2017-Jun-19 02:56N 34°41' E 135°11'0 0.0
2017-Jun-19 02:26N 34°41' E 135°11'0 0.0
2017-Jun-19 01:56N 34°41' E 135°11'0 0.0
2017-Jun-19 01:26N 34°41' E 135°11'0 0.0
2017-Jun-19 00:50N 34°41' E 135°11'0 0.0
2017-Jun-19 00:20N 34°41' E 135°11'0 0.0
2017-Jun-18 23:44N 34°41' E 135°11'0 0.0
2017-Jun-18 23:26N 34°41' E 135°11'0 0.0
2017-Jun-18 22:44N 34°41' E 135°11'0 0.0
2017-Jun-18 22:26N 34°41' E 135°11'0 0.0
2017-Jun-18 21:56N 34°41' E 135°11'0 0.0
2017-Jun-18 21:26N 34°41' E 135°11'0 0.0
2017-Jun-18 20:56N 34°41' E 135°11'0 0.0
2017-Jun-18 20:26N 34°41' E 135°11'0 0.0
2017-Jun-18 19:56N 34°41' E 135°11'0 0.0
2017-Jun-18 19:20N 34°41' E 135°11'0 0.0
2017-Jun-18 18:56N 34°41' E 135°11'0 0.0
2017-Jun-18 18:26N 34°41' E 135°11'0 0.0
2017-Jun-18 17:56N 34°41' E 135°11'0 0.0
2017-Jun-18 17:26N 34°41' E 135°11'0 0.0
2017-Jun-18 16:56N 34°41' E 135°11'0 0.0
2017-Jun-18 16:26N 34°41' E 135°11'0 0.0
2017-Jun-18 15:56N 34°41' E 135°11'0 0.0
2017-Jun-18 15:26N 34°41' E 135°11'0 0.0
2017-Jun-18 14:50N 34°41' E 135°11'0 0.0
2017-Jun-18 13:56N 34°41' E 135°11'0 0.0
2017-Jun-18 13:26N 34°41' E 135°11'0 0.0
2017-Jun-18 12:56N 34°41' E 135°11'0 0.0
2017-Jun-18 12:26N 34°41' E 135°11'0 0.0
2017-Jun-18 11:50N 34°41' E 135°11'0 0.0
2017-Jun-18 11:14N 34°41' E 135°11'0 0.0
2017-Jun-18 10:56N 34°41' E 135°11'0 0.0
2017-Jun-18 10:26N 34°41' E 135°11'0 0.0
2017-Jun-18 09:50N 34°41' E 135°11'0 0.0
2017-Jun-18 09:26N 34°41' E 135°11'0 0.0
2017-Jun-18 08:50N 34°41' E 135°11'0 0.0
2017-Jun-18 08:26N 34°41' E 135°11'0 0.0
2017-Jun-18 07:56N 34°41' E 135°11'0 0.0
2017-Jun-18 07:20N 34°41' E 135°11'0 0.0
2017-Jun-18 06:56N 34°41' E 135°11'0 0.0
2017-Jun-18 06:20N 34°41' E 135°11'0 0.0
2017-Jun-18 05:56N 34°41' E 135°11'0 0.0
2017-Jun-18 05:26N 34°41' E 135°11'0 0.0
2017-Jun-18 04:56N 34°41' E 135°11'0 0.0
2017-Jun-18 04:26N 34°41' E 135°11'0 0.0
2017-Jun-18 03:56N 34°41' E 135°11'0 0.0
2017-Jun-18 03:26N 34°41' E 135°11'0 0.0
2017-Jun-18 02:56N 34°41' E 135°11'0 0.0
2017-Jun-18 02:26N 34°41' E 135°11'0 0.0
2017-Jun-18 01:56N 34°41' E 135°11'0 0.0
2017-Jun-18 01:26N 34°41' E 135°11'0 0.0
2017-Jun-18 00:56N 34°41' E 135°11'0 0.0
2017-Jun-18 00:26N 34°41' E 135°11'0 0.0
2017-Jun-17 23:56N 34°41' E 135°11'0 0.0
2017-Jun-17 23:26N 34°41' E 135°11'0 0.0
2017-Jun-17 22:56N 34°41' E 135°11'0 0.0
2017-Jun-17 22:26N 34°41' E 135°11'0 0.0
2017-Jun-17 21:44N 34°41' E 135°11'0 0.0
2017-Jun-17 21:26N 34°41' E 135°11'0 0.0
2017-Jun-17 20:56N 34°41' E 135°11'0 0.0
2017-Jun-17 20:26N 34°41' E 135°11'0 0.0
2017-Jun-17 19:56N 34°41' E 135°11'0 0.0
2017-Jun-17 19:26N 34°41' E 135°11'0 0.0
2017-Jun-17 18:56N 34°41' E 135°11'0 0.0
2017-Jun-17 18:26N 34°41' E 135°11'0 0.0
2017-Jun-17 17:56N 34°41' E 135°11'0 0.0
2017-Jun-17 17:26N 34°41' E 135°11'0 0.0
2017-Jun-17 16:56N 34°41' E 135°11'0 0.0
2017-Jun-17 16:26N 34°41' E 135°11'0 0.0
2017-Jun-17 15:56N 34°41' E 135°11'0 0.0
2017-Jun-17 15:26N 34°41' E 135°11'0 0.0
2017-Jun-17 14:56N 34°41' E 135°11'0 0.0
2017-Jun-17 14:26N 34°41' E 135°11'0 0.0
2017-Jun-17 13:14N 34°41' E 135°11'0 0.0
2017-Jun-17 12:56N 34°41' E 135°11'0 0.0
2017-Jun-17 12:14N 34°41' E 135°11'0 0.0
2017-Jun-17 11:50N 34°41' E 135°11'0 0.0
2017-Jun-17 11:26N 34°41' E 135°11'0 0.0
2017-Jun-17 10:56N 34°41' E 135°11'0 0.0
2017-Jun-17 10:26N 34°41' E 135°11'0 0.0
2017-Jun-17 09:56N 34°41' E 135°11'0 0.0
2017-Jun-17 09:26N 34°41' E 135°11'0 0.0
2017-Jun-17 08:56N 34°41' E 135°11'0 0.0
2017-Jun-17 08:26N 34°41' E 135°11'0 0.0
2017-Jun-17 07:56N 34°41' E 135°11'0 0.0
2017-Jun-17 07:26N 34°41' E 135°11'0 0.0
2017-Jun-17 06:50N 34°41' E 135°11'0 0.0
2017-Jun-17 06:26N 34°41' E 135°11'0 0.0
2017-Jun-17 05:56N 34°41' E 135°11'0 0.0
2017-Jun-17 05:14N 34°41' E 135°11'0 0.0
2017-Jun-17 04:14N 34°41' E 135°11'0 0.0
2017-Jun-17 03:56N 34°41' E 135°11'0 0.0
2017-Jun-17 03:26N 34°41' E 135°11'0 0.0
2017-Jun-17 02:56N 34°41' E 135°11'0 0.0
2017-Jun-17 02:26N 34°41' E 135°11'0 0.0
2017-Jun-17 01:56N 34°41' E 135°11'0 0.0
2017-Jun-17 01:26N 34°41' E 135°11'0 0.0
2017-Jun-17 00:56N 34°41' E 135°11'0 0.0
2017-Jun-17 00:26N 34°41' E 135°11'0 0.0
2017-Jun-16 23:38N 34°41' E 135°11'0 0.0
2017-Jun-16 23:20N 34°41' E 135°11'0 0.0
2017-Jun-16 22:56N 34°41' E 135°11'0 0.0
2017-Jun-16 22:20N 34°41' E 135°11'0 0.0
2017-Jun-16 21:50N 34°41' E 135°11'0 0.0
2017-Jun-16 21:20N 34°41' E 135°11'0 0.0
2017-Jun-16 20:56N 34°41' E 135°11'0 0.0
2017-Jun-16 20:26N 34°41' E 135°11'0 0.0
2017-Jun-16 19:50N 34°41' E 135°11'0 0.0
2017-Jun-16 19:26N 34°41' E 135°11'0 0.0
2017-Jun-16 18:56N 34°41' E 135°11'0 0.0
2017-Jun-16 18:26N 34°41' E 135°11'0 0.0
2017-Jun-16 17:56N 34°41' E 135°11'0 0.0
2017-Jun-16 17:26N 34°41' E 135°11'0 0.0
2017-Jun-16 16:56N 34°41' E 135°11'0 0.0
2017-Jun-16 16:26N 34°41' E 135°11'0 0.0
2017-Jun-16 15:56N 34°41' E 135°11'0 0.0
2017-Jun-16 15:26N 34°41' E 135°11'0 0.0
2017-Jun-16 14:56N 34°41' E 135°11'0 0.0
2017-Jun-16 14:26N 34°41' E 135°11'0 0.0
2017-Jun-16 13:20N 34°41' E 135°11'0 0.0
2017-Jun-16 12:56N 34°41' E 135°11'0 0.0
2017-Jun-16 12:26N 34°41' E 135°11'0 0.0
2017-Jun-16 11:56N 34°41' E 135°11'0 0.0
2017-Jun-16 11:26N 34°41' E 135°11'0 0.0
2017-Jun-16 10:56N 34°41' E 135°11'0 0.0
2017-Jun-16 10:26N 34°41' E 135°11'0 0.0
2017-Jun-16 09:56N 34°41' E 135°11'0 0.0
2017-Jun-16 09:26N 34°41' E 135°11'0 0.0
2017-Jun-16 08:56N 34°41' E 135°11'0 0.0
2017-Jun-16 08:26N 34°41' E 135°11'0 0.0
2017-Jun-16 07:50N 34°41' E 135°11'0 0.0
2017-Jun-16 07:26N 34°41' E 135°11'  

Dump ship's entire track history